Time;durP1;ratioP1;P1;durP2;ratioP2;P2;SDS_P1;SDS_P2;PMS_P1;PMS_P2;Temp;Humidity;BMP_temperature;BMP_pressure;BME280_temperature;BME280_humidity;BME280_pressure;Samples;Min_cycle;Max_cycle;Signal;HPM_P1;HPM_P2
2022/05/13 00:01:51;;;;;;;14.30;3.30;;;14.40;99.90;;;;;;5017388;28;20132;-84
2022/05/13 00:04:17;;;;;;;12.05;3.53;;;14.40;99.90;;;;;;5033591;28;20071;-84
2022/05/13 00:06:42;;;;;;;9.65;3.00;;;14.40;99.90;;;;;;5017101;28;20044;-83
2022/05/13 00:09:08;;;;;;;8.73;2.70;;;14.40;99.90;;;;;;5016922;28;20041;-83
2022/05/13 00:11:34;;;;;;;10.93;3.83;;;14.40;99.90;;;;;;5032691;28;20040;-84
2022/05/13 00:14:00;;;;;;;6.90;3.85;;;14.40;99.90;;;;;;5033445;28;20029;-84
2022/05/13 00:16:26;;;;;;;9.13;2.90;;;14.40;99.90;;;;;;5033112;28;20033;-84
2022/05/13 00:18:52;;;;;;;8.35;3.00;;;14.30;99.90;;;;;;5016517;28;20108;-84
2022/05/13 00:21:18;;;;;;;11.00;2.95;;;14.30;99.90;;;;;;5016370;28;20043;-84
2022/05/13 00:23:43;;;;;;;13.45;3.53;;;14.20;99.90;;;;;;5016395;28;20041;-84
2022/05/13 00:26:09;;;;;;;6.10;2.83;;;14.10;99.90;;;;;;5033074;28;20033;-84
2022/05/13 00:28:35;;;;;;;12.05;2.95;;;14.10;99.90;;;;;;5033161;28;20240;-84
2022/05/13 00:31:04;;;;;;;8.55;3.17;;;13.90;99.90;;;;;;5034132;28;20028;-83
2022/05/13 00:33:31;;;;;;;5.30;2.90;;;13.80;99.90;;;;;;5016384;28;20120;-83
2022/05/13 00:35:57;;;;;;;7.97;3.25;;;13.60;99.90;;;;;;5016265;28;20037;-83
2022/05/13 00:38:23;;;;;;;6.18;2.75;;;13.50;99.90;;;;;;5032960;28;20032;-83
2022/05/13 00:40:49;;;;;;;8.60;3.20;;;13.40;99.90;;;;;;5016526;28;20112;-83
2022/05/13 00:43:51;;;;;;;8.15;3.42;;;13.30;99.90;;;;;;5014748;28;20507;-83
2022/05/13 00:46:16;;;;;;;9.35;3.28;;;13.30;99.90;;;;;;5015871;28;20453;-84
2022/05/13 00:48:43;;;;;;;10.25;3.10;;;13.40;99.90;;;;;;5016076;28;20057;-83
2022/05/13 00:51:11;;;;;;;11.07;3.10;;;13.50;99.90;;;;;;5015963;28;20025;-84
2022/05/13 00:53:38;;;;;;;6.90;3.25;;;13.50;99.90;;;;;;5016105;28;20116;-84
2022/05/13 00:59:53;;;;;;;6.47;3.00;;;13.40;99.90;;;;;;5033909;28;20036;-84
2022/05/13 01:02:18;;;;;;;7.97;2.83;;;13.30;99.90;;;;;;5015815;28;20060;-84
2022/05/13 01:04:45;;;;;;;13.35;3.83;;;13.30;99.90;;;;;;5015829;28;20420;-83
2022/05/13 01:07:15;;;;;;;8.15;3.33;;;13.30;99.90;;;;;;5015261;28;20029;-84
2022/05/13 01:09:45;;;;;;;10.13;3.67;;;13.30;99.90;;;;;;5015679;28;20033;-83
2022/05/13 01:12:15;;;;;;;10.10;4.93;;;13.40;99.90;;;;;;5031776;28;20033;-83
2022/05/13 01:14:49;;;;;;;11.80;3.60;;;13.30;99.90;;;;;;5015519;28;20124;-83
2022/05/13 01:20:06;;;;;;;8.20;3.08;;;13.40;99.90;;;;;;5031300;28;20025;-83
2022/05/13 01:22:42;;;;;;;7.80;3.38;;;13.40;99.90;;;;;;5014952;28;20151;-84
2022/05/13 01:25:09;;;;;;;6.32;3.20;;;13.40;99.90;;;;;;5031505;28;20116;-84
2022/05/13 01:27:35;;;;;;;6.85;2.83;;;13.50;99.90;;;;;;5014945;28;20040;-84
2022/05/13 01:30:00;;;;;;;8.18;3.00;;;13.60;99.90;;;;;;5015431;28;20489;-84
2022/05/13 01:32:26;;;;;;;9.27;2.70;;;13.70;99.90;;;;;;5031844;28;20033;-84
2022/05/13 01:34:52;;;;;;;8.88;2.78;;;13.80;99.90;;;;;;5032436;28;20366;-83
2022/05/13 01:37:17;;;;;;;11.15;3.40;;;13.90;99.90;;;;;;5015921;28;20124;-83
2022/05/13 01:39:43;;;;;;;5.20;2.85;;;13.90;99.90;;;;;;5031938;28;20071;-84
2022/05/13 01:42:09;;;;;;;14.10;3.20;;;14.00;99.90;;;;;;5031829;28;20033;-84
2022/05/13 01:44:34;;;;;;;8.35;3.08;;;14.00;99.90;;;;;;5031717;28;20029;-83
2022/05/13 01:47:00;;;;;;;10.25;3.00;;;14.00;99.90;;;;;;5031924;28;20135;-84
2022/05/13 01:49:26;;;;;;;8.27;2.78;;;14.00;99.90;;;;;;5031791;28;20105;-84
2022/05/13 01:51:51;;;;;;;8.25;2.53;;;14.00;99.90;;;;;;5030900;28;20144;-83
2022/05/13 01:54:17;;;;;;;6.38;2.97;;;13.90;99.90;;;;;;5033088;28;20034;-83
2022/05/13 01:56:43;;;;;;;6.63;2.85;;;13.80;99.90;;;;;;5014318;28;20034;-83
2022/05/13 01:59:08;;;;;;;13.02;2.83;;;13.60;99.90;;;;;;5015073;28;20622;-84
2022/05/13 02:01:34;;;;;;;5.38;2.50;;;13.70;99.90;;;;;;5015263;28;20030;-83
2022/05/13 02:04:00;;;;;;;9.40;2.95;;;13.70;99.90;;;;;;5015395;28;20112;-84
2022/05/13 02:06:28;;;;;;;8.30;3.05;;;13.80;99.90;;;;;;5015114;28;20037;-83
2022/05/13 02:08:56;;;;;;;7.63;2.90;;;13.80;99.90;;;;;;5015011;28;20144;-84
2022/05/13 02:11:24;;;;;;;7.53;3.33;;;13.80;99.90;;;;;;5014669;28;20083;-84
2022/05/13 02:13:51;;;;;;;9.32;3.28;;;13.90;99.90;;;;;;5015235;28;20029;-83
2022/05/13 02:16:17;;;;;;;8.55;3.58;;;13.90;99.90;;;;;;5014915;28;20045;-84
2022/05/13 02:18:43;;;;;;;12.70;3.08;;;13.80;99.90;;;;;;5014876;28;20034;-84
2022/05/13 02:21:10;;;;;;;6.90;2.67;;;13.80;99.90;;;;;;5031280;28;20061;-83
2022/05/13 02:23:37;;;;;;;10.55;3.58;;;13.90;99.90;;;;;;5014861;28;20817;-84
2022/05/13 02:26:07;;;;;;;8.07;3.47;;;13.80;99.90;;;;;;5014475;28;20424;-84
2022/05/13 02:28:34;;;;;;;11.52;3.30;;;13.80;99.90;;;;;;5014603;28;20072;-84
2022/05/13 02:31:00;;;;;;;9.52;2.90;;;13.80;99.90;;;;;;5014855;28;20030;-84
2022/05/13 02:33:28;;;;;;;7.13;3.20;;;13.80;99.90;;;;;;5031265;28;20037;-84
2022/05/13 02:35:54;;;;;;;9.65;3.30;;;13.70;99.90;;;;;;5015019;28;20431;-83
2022/05/13 02:38:20;;;;;;;7.90;2.83;;;13.60;99.90;;;;;;5031518;28;20388;-83
2022/05/13 02:43:51;;;;;;;12.68;4.85;;;13.50;99.90;;;;;;5013709;28;20072;-83
2022/05/13 02:46:25;;;;;;;5.25;2.88;;;13.50;99.90;;;;;;5027258;28;20045;-83
2022/05/13 02:48:51;;;;;;;6.13;2.53;;;13.50;99.90;;;;;;5031186;28;20061;-84
2022/05/13 02:51:18;;;;;;;8.07;2.92;;;13.50;99.90;;;;;;5031064;28;20816;-84
2022/05/13 02:53:44;;;;;;;9.80;3.55;;;13.50;99.90;;;;;;5031828;28;20029;-84
2022/05/13 02:56:10;;;;;;;12.30;3.28;;;13.50;99.90;;;;;;5013723;28;20052;-84
2022/05/13 02:58:37;;;;;;;6.47;2.63;;;13.50;99.90;;;;;;5014633;28;20037;-84
2022/05/13 03:01:04;;;;;;;11.85;3.33;;;13.50;99.90;;;;;;5014486;28;20029;-83
2022/05/13 03:03:30;;;;;;;7.95;2.85;;;13.60;99.90;;;;;;5014536;28;20393;-84
2022/05/13 03:05:57;;;;;;;6.72;2.90;;;13.70;99.90;;;;;;5014630;28;20033;-84
2022/05/13 03:08:22;;;;;;;5.97;2.78;;;13.70;99.90;;;;;;5015276;28;20069;-84
2022/05/13 03:10:48;;;;;;;4.95;2.60;;;13.80;99.90;;;;;;5018593;28;20126;-84
2022/05/13 03:13:18;;;;;;;8.48;3.10;;;13.80;99.90;;;;;;5034683;28;20032;-83
2022/05/13 03:15:44;;;;;;;7.35;2.65;;;13.80;99.90;;;;;;5018341;28;20057;-84
2022/05/13 03:18:10;;;;;;;9.73;2.50;;;13.80;99.90;;;;;;5018192;28;20037;-84
2022/05/13 03:20:36;;;;;;;7.05;2.65;;;13.80;99.90;;;;;;5034256;28;20099;-84
2022/05/13 03:23:02;;;;;;;6.75;2.88;;;13.80;99.90;;;;;;5017215;28;20064;-84
2022/05/13 03:25:29;;;;;;;9.50;2.30;;;13.80;99.90;;;;;;5017882;28;20044;-84
2022/05/13 03:27:55;;;;;;;6.68;3.05;;;13.80;99.90;;;;;;5034128;28;20029;-84
2022/05/13 03:30:23;;;;;;;8.90;3.17;;;13.80;99.90;;;;;;5017234;28;20755;-84
2022/05/13 03:32:49;;;;;;;7.60;2.58;;;13.80;99.90;;;;;;5017997;28;20657;-84
2022/05/13 03:35:16;;;;;;;6.57;2.75;;;13.80;99.90;;;;;;5017871;28;20087;-84
2022/05/13 03:37:42;;;;;;;7.93;3.25;;;13.70;99.90;;;;;;5018005;28;20029;-83
2022/05/13 03:40:10;;;;;;;8.65;2.97;;;13.70;99.90;;;;;;5017915;28;20551;-84
2022/05/13 03:43:04;;;;;;;11.52;3.55;;;13.70;99.90;;;;;;5034312;28;20044;-84
2022/05/13 03:45:32;;;;;;;6.38;2.42;;;13.70;99.90;;;;;;5034069;28;20033;-81
2022/05/13 03:47:59;;;;;;;8.95;3.05;;;13.80;99.90;;;;;;5017189;28;20025;-81
2022/05/13 03:50:25;;;;;;;7.88;3.08;;;13.80;99.90;;;;;;5035395;28;20083;-81
2022/05/13 03:52:51;;;;;;;7.43;2.97;;;13.80;99.90;;;;;;5033702;28;20053;-81
2022/05/13 03:55:18;;;;;;;10.25;3.63;;;13.80;99.90;;;;;;5033365;28;20032;-81
2022/05/13 03:57:44;;;;;;;10.63;2.70;;;13.80;99.90;;;;;;5033572;28;20443;-81
2022/05/13 04:00:15;;;;;;;15.05;2.90;;;13.80;99.90;;;;;;5033388;28;20037;-81
2022/05/13 04:02:41;;;;;;;5.55;2.70;;;13.90;99.90;;;;;;5033065;28;20048;-81
2022/05/13 04:10:37;;;;;;;11.02;3.67;;;13.80;99.90;;;;;;5032880;28;20374;-81
2022/05/13 04:18:43;;;;;;;11.48;3.50;;;13.90;99.90;;;;;;5033171;28;20080;-81
2022/05/13 04:21:21;;;;;;;13.18;3.65;;;13.80;99.90;;;;;;5015719;28;20128;-81
2022/05/13 04:23:50;;;;;;;7.47;3.53;;;13.80;99.90;;;;;;5016602;28;20029;-81
2022/05/13 04:26:16;;;;;;;13.88;3.08;;;13.80;99.90;;;;;;5015718;28;20048;-81
2022/05/13 04:28:45;;;;;;;6.65;3.40;;;13.80;99.90;;;;;;5032807;28;20040;-81
2022/05/13 04:31:13;;;;;;;9.90;3.55;;;13.80;99.90;;;;;;5032970;28;20105;-81
2022/05/13 04:33:49;;;;;;;9.90;3.78;;;13.90;99.90;;;;;;5032932;28;20676;-81
2022/05/13 04:36:15;;;;;;;12.20;4.10;;;13.90;99.90;;;;;;5033000;28;20038;-81
2022/05/13 04:38:41;;;;;;;12.43;3.50;;;13.90;99.90;;;;;;5015484;28;20109;-81
2022/05/13 04:43:53;;;;;;;11.05;3.50;;;13.90;99.90;;;;;;5030771;28;20030;-81
2022/05/13 04:46:19;;;;;;;10.38;3.78;;;14.00;99.90;;;;;;5016326;28;20033;-81
2022/05/13 04:48:47;;;;;;;7.68;3.40;;;14.00;99.90;;;;;;5032977;28;20520;-81
2022/05/13 04:51:12;;;;;;;8.52;3.55;;;14.10;99.90;;;;;;5032956;28;20030;-81
2022/05/13 04:53:39;;;;;;;13.88;3.72;;;14.10;99.90;;;;;;5016304;28;20025;-81
2022/05/13 04:56:08;;;;;;;14.93;3.63;;;14.10;99.90;;;;;;5031905;28;20033;-82
2022/05/13 04:59:10;;;;;;;11.30;3.50;;;14.10;99.90;;;;;;5032831;28;20457;-81
2022/05/13 05:05:24;;;;;;;10.70;3.38;;;14.20;99.90;;;;;;5033955;28;20040;-81
2022/05/13 05:07:49;;;;;;;7.25;3.45;;;14.20;99.90;;;;;;5015452;28;20041;-82
2022/05/13 05:10:18;;;;;;;17.08;3.60;;;14.10;99.90;;;;;;5016128;28;20872;-81
2022/05/13 05:12:49;;;;;;;10.00;3.30;;;14.20;99.90;;;;;;5015023;28;20044;-81
2022/05/13 05:15:15;;;;;;;7.90;3.28;;;14.30;99.90;;;;;;5015134;28;20036;-81
2022/05/13 05:17:41;;;;;;;10.48;3.65;;;14.40;99.90;;;;;;5016160;28;20071;-81
2022/05/13 05:20:08;;;;;;;12.50;3.40;;;14.50;99.90;;;;;;5032366;28;20037;-81
2022/05/13 05:22:34;;;;;;;8.35;3.85;;;14.70;99.90;;;;;;5032255;28;20635;-81
2022/05/13 05:25:01;;;;;;;11.98;3.38;;;14.70;99.90;;;;;;5015756;28;20030;-81
2022/05/13 05:27:26;;;;;;;12.50;3.50;;;14.80;99.90;;;;;;5032128;28;20037;-81
2022/05/13 05:29:52;;;;;;;14.10;3.30;;;14.80;99.90;;;;;;5015748;28;20030;-81
2022/05/13 05:32:18;;;;;;;11.45;3.45;;;14.80;99.90;;;;;;5030835;28;20388;-81
2022/05/13 05:34:43;;;;;;;8.43;2.85;;;14.70;99.90;;;;;;5015397;28;20107;-81
2022/05/13 05:37:09;;;;;;;11.20;3.13;;;14.80;99.90;;;;;;5031838;28;20048;-81
2022/05/13 05:39:35;;;;;;;13.43;3.40;;;15.00;99.90;;;;;;5015330;28;20072;-81
2022/05/13 05:42:00;;;;;;;7.78;2.72;;;15.30;99.90;;;;;;5031541;28;20033;-81
2022/05/13 05:44:26;;;;;;;9.38;3.53;;;15.50;99.90;;;;;;5014653;28;20037;-81
2022/05/13 05:47:07;;;;;;;10.77;3.53;;;15.40;99.90;;;;;;5029456;28;20048;-81
2022/05/13 05:49:33;;;;;;;14.18;3.70;;;15.20;99.90;;;;;;5014527;28;20119;-81
2022/05/13 05:51:59;;;;;;;7.85;4.00;;;15.10;99.90;;;;;;5012707;28;20064;-82
2022/05/13 05:57:15;;;;;;;11.10;4.05;;;15.00;99.90;;;;;;5028969;28;20034;-81
2022/05/13 05:59:41;;;;;;;;;;;15.20;99.90;;;;;;5033106;28;20112;-82
2022/05/13 06:02:07;;;;;;;9.35;3.45;;;15.60;99.90;;;;;;5031068;28;20448;-82
2022/05/13 06:04:33;;;;;;;9.00;3.22;;;16.00;99.90;;;;;;5014690;28;20108;-82
2022/05/13 06:06:59;;;;;;;6.63;3.53;;;16.20;99.90;;;;;;5014649;28;20061;-81
2022/05/13 06:09:25;;;;;;;11.43;3.40;;;16.10;99.90;;;;;;5030909;28;20060;-81
2022/05/13 06:11:51;;;;;;;9.95;2.92;;;16.10;99.90;;;;;;5014414;28;20079;-81
2022/05/13 06:14:16;;;;;;;16.17;4.38;;;16.20;99.90;;;;;;5014563;28;20022;-81
2022/05/13 06:16:42;;;;;;;6.07;3.30;;;16.20;99.90;;;;;;5014789;28;20037;-81
2022/05/13 06:19:08;;;;;;;8.43;3.08;;;16.30;99.90;;;;;;5014580;28;20037;-81
2022/05/13 06:21:36;;;;;;;9.10;3.53;;;16.30;99.90;;;;;;5014462;28;20389;-81
2022/05/13 06:24:02;;;;;;;11.15;3.33;;;16.40;99.90;;;;;;5014839;28;20037;-81
2022/05/13 06:26:28;;;;;;;11.75;3.15;;;16.50;99.90;;;;;;5031259;28;20025;-81
2022/05/13 06:28:54;;;;;;;10.63;3.13;;;16.50;99.90;;;;;;5031116;28;20032;-81
2022/05/13 06:31:20;;;;;;;7.95;2.97;;;16.30;99.90;;;;;;5014427;28;20389;-81
2022/05/13 06:33:47;;;;;;;10.35;3.13;;;16.10;99.90;;;;;;5014038;28;20503;-81
2022/05/13 06:36:13;;;;;;;8.68;3.47;;;16.00;99.90;;;;;;5014447;28;20040;-81
2022/05/13 06:38:39;;;;;;;12.00;3.08;;;16.00;99.90;;;;;;5030696;28;20025;-81
2022/05/13 06:41:05;;;;;;;12.23;4.03;;;16.10;99.90;;;;;;5032325;28;20036;-81
2022/05/13 06:43:31;;;;;;;9.13;3.67;;;16.00;99.90;;;;;;5015201;28;20025;-81
2022/05/13 06:45:57;;;;;;;10.40;3.75;;;15.80;99.90;;;;;;5018348;28;20029;-81
2022/05/13 06:48:23;;;;;;;6.38;3.22;;;15.60;99.90;;;;;;5018530;28;20030;-81
2022/05/13 06:50:49;;;;;;;11.88;4.15;;;15.70;99.90;;;;;;5015110;28;20030;-81
2022/05/13 06:53:18;;;;;;;16.50;3.90;;;15.70;99.90;;;;;;5018043;28;20064;-81
2022/05/13 06:55:44;;;;;;;11.68;3.53;;;15.60;99.90;;;;;;5034618;28;20029;-81
2022/05/13 06:58:10;;;;;;;12.65;3.53;;;15.60;99.90;;;;;;5017647;28;20037;-81
2022/05/13 07:00:36;;;;;;;10.82;3.83;;;15.80;99.90;;;;;;5013343;28;20484;-81
2022/05/13 07:03:02;;;;;;;9.77;3.65;;;15.80;99.90;;;;;;5034127;28;20030;-80
2022/05/13 07:05:29;;;;;;;13.65;3.13;;;15.60;99.90;;;;;;5017738;28;20099;-81
2022/05/13 07:07:55;;;;;;;7.47;2.80;;;15.50;99.90;;;;;;5017598;28;20033;-80
2022/05/13 07:10:23;;;;;;;12.93;3.47;;;15.40;99.90;;;;;;5017914;28;20079;-81
2022/05/13 07:12:49;;;;;;;8.73;3.67;;;15.50;99.90;;;;;;5033962;28;20029;-82
2022/05/13 07:15:17;;;;;;;12.18;3.38;;;15.50;99.90;;;;;;5017717;28;20033;-81
2022/05/13 07:17:43;;;;;;;15.13;3.90;;;15.50;99.90;;;;;;5017609;28;20041;-81
2022/05/13 07:20:29;;;;;;;12.18;3.13;;;15.40;99.90;;;;;;5034517;28;20025;-81
2022/05/13 07:22:55;;;;;;;9.48;3.45;;;15.40;99.90;;;;;;5017498;28;20465;-81
2022/05/13 07:25:36;;;;;;;19.27;4.28;;;15.40;99.90;;;;;;5017559;28;20029;-81
2022/05/13 07:28:03;;;;;;;12.57;3.70;;;15.40;99.90;;;;;;5017708;28;20104;-81
2022/05/13 07:30:29;;;;;;;12.00;4.00;;;15.40;99.90;;;;;;5017452;28;20025;-81
2022/05/13 07:32:55;;;;;;;13.13;4.55;;;15.50;99.90;;;;;;5034024;28;20499;-81
2022/05/13 07:35:21;;;;;;;9.68;4.18;;;15.50;99.90;;;;;;5017760;28;20076;-81
2022/05/13 07:37:46;;;;;;;12.77;4.13;;;15.70;99.90;;;;;;5017632;28;20071;-81
2022/05/13 07:42:57;;;;;;;7.03;3.25;;;16.10;99.90;;;;;;5033734;28;20060;-81
2022/05/13 07:45:23;;;;;;;10.77;3.50;;;16.40;99.90;;;;;;5017182;28;20068;-81
2022/05/13 07:47:48;;;;;;;14.95;4.18;;;16.60;99.90;;;;;;5034979;28;20026;-81
2022/05/13 07:50:14;;;;;;;7.25;3.55;;;16.70;99.90;;;;;;5035537;28;20026;-81
2022/05/13 07:52:41;;;;;;;13.63;3.40;;;16.80;99.90;;;;;;5033765;28;20029;-81
2022/05/13 07:55:11;;;;;;;11.95;3.20;;;16.80;99.90;;;;;;5015826;28;20033;-81
2022/05/13 07:57:39;;;;;;;9.73;3.40;;;16.50;99.90;;;;;;5016849;28;20037;-81
2022/05/13 08:00:26;;;;;;;7.00;2.40;;;16.50;99.90;;;;;;5034992;28;20044;-82
2022/05/13 08:02:55;;;;;;;7.18;3.20;;;16.80;99.90;;;;;;5028059;28;20080;-81
2022/05/13 08:05:22;;;;;;;4.28;2.10;;;17.80;99.90;;;;;;5017118;28;20037;-81
2022/05/13 08:07:48;;;;;;;6.55;2.20;;;18.80;99.90;;;;;;5032800;28;20034;-81
2022/05/13 08:10:14;;;;;;;7.00;2.40;;;19.60;99.90;;;;;;5016893;28;20025;-81
2022/05/13 08:12:40;;;;;;;14.05;2.50;;;20.30;99.90;;;;;;5033199;28;20548;-82
2022/05/13 08:15:06;;;;;;;8.02;2.67;;;20.30;99.90;;;;;;5016752;28;20676;-81
2022/05/13 08:17:36;;;;;;;8.13;2.38;;;20.50;99.90;;;;;;5016268;28;20037;-82
2022/05/13 08:20:03;;;;;;;6.13;2.28;;;20.70;99.90;;;;;;5033402;28;20029;-83
2022/05/13 08:22:28;;;;;;;7.68;2.45;;;19.40;99.90;;;;;;5016140;28;20037;-81
2022/05/13 08:24:54;;;;;;;5.55;2.00;;;19.10;99.90;;;;;;5016368;28;20484;-82
2022/05/13 08:27:20;;;;;;;6.47;3.17;;;19.70;99.90;;;;;;5016786;28;20385;-81
2022/05/13 08:30:35;;;;;;;12.90;2.65;;;19.10;99.90;;;;;;5034420;28;20039;-81
2022/05/13 08:33:02;;;;;;;10.75;1.98;;;19.30;99.90;;;;;;5015885;28;20027;-81
2022/05/13 08:35:28;;;;;;;6.80;2.03;;;19.10;99.90;;;;;;5032678;28;20181;-81
2022/05/13 08:37:55;;;;;;;7.60;1.75;;;19.10;99.90;;;;;;5016447;28;20036;-81
2022/05/13 08:40:54;;;;;;;8.82;2.03;;;19.70;99.90;;;;;;5016502;28;20037;-81
2022/05/13 08:43:35;;;;;;;5.90;1.75;;;20.60;99.90;;;;;;5016126;28;20041;-82
2022/05/13 08:46:05;;;;;;;7.55;2.63;;;20.80;99.90;;;;;;5015035;28;20025;-81
2022/05/13 08:49:01;;;;;;;8.93;2.10;;;20.70;99.90;;;;;;5030790;28;20531;-81
2022/05/13 08:51:27;;;;;;;12.35;2.03;;;20.60;99.90;;;;;;5014577;28;20047;-82
2022/05/13 08:54:18;;;;;;;9.38;2.10;;;20.40;99.90;;;;;;5032643;28;20026;-81
2022/05/13 08:56:48;;;;;;;12.27;2.45;;;19.90;99.90;;;;;;5032887;28;20439;-82
2022/05/13 08:59:35;;;;;;;8.40;2.10;;;20.20;99.90;;;;;;5016319;28;20129;-82
2022/05/13 09:02:10;;;;;;;8.60;2.25;;;19.90;99.90;;;;;;5013195;28;20091;-81
2022/05/13 09:04:39;;;;;;;4.32;2.00;;;19.90;99.90;;;;;;5031990;28;20091;-81
2022/05/13 09:07:11;;;;;;;8.35;2.10;;;20.50;99.90;;;;;;5015783;28;20396;-82
2022/05/13 09:09:39;;;;;;;7.82;2.50;;;21.10;99.90;;;;;;5015899;28;20036;-81
2022/05/13 09:12:22;;;;;;;7.78;2.30;;;21.00;99.90;;;;;;5032737;28;20071;-82
2022/05/13 09:15:22;;;;;;;7.82;2.58;;;21.10;99.30;;;;;;5032343;28;20029;-81
2022/05/13 09:18:10;;;;;;;5.75;2.42;;;21.70;99.40;;;;;;5015742;28;20041;-81
2022/05/13 09:20:48;;;;;;;9.43;2.53;;;22.70;97.10;;;;;;5032144;28;20037;-82
2022/05/13 09:23:15;;;;;;;9.02;2.40;;;22.20;98.40;;;;;;5015169;28;20069;-82
2022/05/13 09:26:09;;;;;;;8.95;2.83;;;22.10;98.40;;;;;;5015452;28;20053;-81
2022/05/13 09:28:40;;;;;;;6.38;2.38;;;21.60;98.10;;;;;;5031428;28;20738;-81
2022/05/13 09:31:19;;;;;;;7.07;2.95;;;21.70;97.60;;;;;;5015294;28;20235;-82
2022/05/13 09:33:47;;;;;;;6.63;2.80;;;21.70;98.80;;;;;;5031485;28;20510;-81
2022/05/13 09:36:21;;;;;;;7.38;2.50;;;21.70;99.10;;;;;;5031495;28;20054;-81
2022/05/13 09:38:53;;;;;;;5.63;2.42;;;21.50;98.70;;;;;;5031661;28;20025;-82
2022/05/13 09:41:28;;;;;;;11.20;3.00;;;21.60;98.00;;;;;;5015336;28;20516;-81
2022/05/13 09:43:56;;;;;;;8.52;2.30;;;21.70;97.00;;;;;;5012542;28;20057;-82
2022/05/13 09:46:38;;;;;;;9.73;2.88;;;21.10;98.30;;;;;;5030230;28;20053;-81
2022/05/13 09:49:05;;;;;;;9.13;2.72;;;20.60;99.60;;;;;;5015030;28;20029;-82
2022/05/13 09:51:51;;;;;;;11.90;3.05;;;20.30;99.30;;;;;;5031638;28;20062;-81
2022/05/13 09:54:22;;;;;;;9.77;2.63;;;20.10;98.30;;;;;;5015105;28;20033;-81
2022/05/13 09:56:53;;;;;;;11.55;2.72;;;20.10;99.60;;;;;;5031531;28;20038;-82
2022/05/13 09:59:20;;;;;;;7.22;2.40;;;20.30;99.80;;;;;;5015218;28;20041;-82
2022/05/13 10:01:47;;;;;;;7.72;2.50;;;19.90;98.80;;;;;;5015394;28;20037;-81
2022/05/13 10:04:50;;;;;;;13.15;3.63;;;19.70;99.10;;;;;;5031743;28;20194;-81
2022/05/13 10:07:16;;;;;;;10.55;2.60;;;19.70;99.40;;;;;;5027092;28;20091;-82
2022/05/13 10:15:47;;;;;;;10.43;2.75;;;19.30;99.90;;;;;;5031165;28;20029;-82
2022/05/13 10:18:30;;;;;;;12.23;2.50;;;19.80;99.90;;;;;;5030038;28;20083;-81
2022/05/13 10:21:28;;;;;;;8.05;2.25;;;19.70;99.90;;;;;;5014716;28;20037;-82
2022/05/13 10:24:21;;;;;;;10.15;2.65;;;20.20;99.40;;;;;;5002873;28;20210;-82
2022/05/13 10:26:49;;;;;;;9.15;2.45;;;20.10;98.60;;;;;;5007141;28;20097;-82
2022/05/13 10:29:37;;;;;;;8.82;2.30;;;20.20;99.40;;;;;;5031427;28;20025;-81
2022/05/13 10:32:13;;;;;;;9.50;3.95;;;20.60;99.40;;;;;;5014227;28;20053;-83
2022/05/13 10:34:45;;;;;;;7.90;2.60;;;20.50;96.30;;;;;;5014516;28;20428;-82
2022/05/13 10:37:19;;;;;;;5.18;2.08;;;20.30;96.90;;;;;;5014499;28;20029;-82
2022/05/13 10:39:50;;;;;;;9.15;2.30;;;20.30;97.20;;;;;;5030439;28;20087;-81
2022/05/13 10:42:31;;;;;;;7.43;2.35;;;20.00;96.40;;;;;;5013922;28;20034;-81
2022/05/13 10:45:05;;;;;;;4.00;2.10;;;19.90;96.90;;;;;;5014750;28;20803;-81
2022/05/13 10:47:41;;;;;;;13.38;4.35;;;20.10;96.20;;;;;;5014219;28;20080;-81
2022/05/13 10:50:25;;;;;;;12.68;2.85;;;20.20;95.70;;;;;;5030444;28;20388;-81
2022/05/13 10:53:10;;;;;;;11.05;3.65;;;20.60;95.40;;;;;;5030339;28;20030;-81
2022/05/13 10:55:42;;;;;;;12.40;2.20;;;21.60;95.50;;;;;;5012928;28;20080;-81
2022/05/13 10:58:44;;;;;;;5.13;2.00;;;21.80;95.50;;;;;;5032360;28;20549;-81
2022/05/13 11:01:40;;;;;;;7.00;3.03;;;21.70;93.50;;;;;;5014500;28;20120;-82
2022/05/13 11:04:27;;;;;;;6.82;2.40;;;21.90;94.30;;;;;;5014279;28;20505;-81
2022/05/13 11:07:41;;;;;;;12.60;3.47;;;21.80;93.70;;;;;;5014165;28;20083;-81
2022/05/13 11:10:18;;;;;;;6.40;2.50;;;21.70;94.40;;;;;;4974344;28;20042;-81
2022/05/13 11:13:14;;;;;;;13.65;2.63;;;21.20;95.50;;;;;;5022926;28;20130;-81
2022/05/13 11:15:54;;;;;;;9.30;3.03;;;21.00;94.60;;;;;;5025240;28;20057;-82
2022/05/13 11:18:45;;;;;;;6.75;3.10;;;21.10;93.70;;;;;;5013968;28;20377;-82
2022/05/13 11:21:16;;;;;;;6.70;2.60;;;21.50;97.40;;;;;;5030141;28;20457;-82
2022/05/13 11:27:14;;;;;;;4.63;2.17;;;23.10;91.50;;;;;;5029766;28;20619;-82
2022/05/13 11:29:47;;;;;;;8.70;2.63;;;22.50;91.30;;;;;;5031515;28;20034;-82
2022/05/13 11:32:21;;;;;;;8.55;2.38;;;22.10;90.80;;;;;;5033756;28;20025;-81
2022/05/13 11:34:59;;;;;;;6.65;1.95;;;22.10;91.40;;;;;;5034478;28;20044;-81
2022/05/13 11:37:29;;;;;;;5.20;2.05;;;22.20;91.20;;;;;;5034200;28;20043;-81
2022/05/13 11:40:06;;;;;;;7.88;1.92;;;22.10;91.60;;;;;;5034197;28;20042;-81
2022/05/13 11:43:18;;;;;;;9.30;2.05;;;22.20;92.50;;;;;;5017223;28;20044;-81
2022/05/13 11:46:25;;;;;;;6.30;2.30;;;21.90;90.80;;;;;;5034068;28;20033;-81
2022/05/13 11:49:47;;;;;;;5.57;2.13;;;21.70;91.50;;;;;;5017197;28;20597;-81
2022/05/13 11:52:12;;;;;;;6.55;1.90;;;21.70;92.20;;;;;;5000546;28;20037;-81
2022/05/13 11:54:41;;;;;;;9.80;2.90;;;21.50;91.20;;;;;;5017237;28;20037;-81
2022/05/13 11:57:16;;;;;;;7.30;1.92;;;21.50;90.30;;;;;;5017251;28;20044;-82
2022/05/13 12:00:22;;;;;;;8.55;2.58;;;21.70;91.30;;;;;;5033336;28;20033;-81
2022/05/13 12:02:51;;;;;;;7.78;2.08;;;21.70;90.50;;;;;;5015058;28;20081;-82
2022/05/13 12:05:16;;;;;;;13.15;2.00;;;21.50;89.70;;;;;;5034006;28;20068;-81
2022/05/13 12:08:12;;;;;;;8.75;2.05;;;21.10;90.70;;;;;;5016989;28;20212;-81
2022/05/13 12:10:50;;;;;;;6.40;2.13;;;21.30;90.60;;;;;;5017080;28;20411;-81
2022/05/13 12:13:29;;;;;;;7.13;1.77;;;21.40;89.00;;;;;;5033199;28;20283;-81
2022/05/13 12:16:26;;;;;;;6.32;1.80;;;21.50;89.30;;;;;;5030694;28;20424;-82
2022/05/13 12:19:00;;;;;;;11.10;2.15;;;21.80;89.20;;;;;;5033364;28;20465;-82
2022/05/13 12:21:47;;;;;;;4.72;1.55;;;21.90;87.80;;;;;;5033377;28;20040;-82
2022/05/13 12:24:13;;;;;;;8.52;2.70;;;21.50;90.20;;;;;;5030740;28;20037;-81
2022/05/13 12:26:51;;;;;;;4.40;1.88;;;21.50;86.40;;;;;;5033278;28;20028;-82
2022/05/13 12:29:24;;;;;;;4.78;1.60;;;21.60;90.50;;;;;;5032593;28;20025;-82
2022/05/13 12:31:53;;;;;;;4.93;1.80;;;21.60;87.20;;;;;;5016347;28;20025;-82
2022/05/13 12:37:47;;;;;;;5.18;1.75;;;21.70;87.40;;;;;;5032472;28;20132;-82
2022/05/13 12:40:22;;;;;;;8.02;2.00;;;21.80;82.10;;;;;;5015890;28;20083;-82
2022/05/13 12:42:49;;;;;;;7.13;1.98;;;22.00;83.60;;;;;;5031472;28;20052;-82
2022/05/13 12:45:21;;;;;;;7.20;1.85;;;22.40;83.20;;;;;;5016085;28;20025;-82
2022/05/13 12:48:07;;;;;;;5.03;1.65;;;22.60;83.10;;;;;;5032498;28;20056;-82
2022/05/13 12:50:42;;;;;;;3.42;1.48;;;23.20;81.40;;;;;;5016057;28;20060;-81
2022/05/13 12:53:30;;;;;;;4.72;1.40;;;24.30;84.90;;;;;;5015810;28;20362;-82
2022/05/13 12:59:48;;;;;;;4.65;1.42;;;23.40;76.20;;;;;;5034523;28;20076;-82
2022/05/13 13:02:15;;;;;;;5.50;1.52;;;23.70;78.60;;;;;;5032982;28;20040;-82
2022/05/13 13:05:06;;;;;;;5.88;1.50;;;23.40;75.20;;;;;;5033569;28;20029;-82
2022/05/13 13:07:35;;;;;;;3.95;1.40;;;23.20;72.10;;;;;;5015981;28;20476;-82
2022/05/13 13:10:28;;;;;;;7.45;1.52;;;23.00;74.10;;;;;;5032611;28;20067;-82
2022/05/13 13:13:07;;;;;;;4.85;1.60;;;22.90;71.00;;;;;;5032256;28;20491;-82
2022/05/13 13:15:37;;;;;;;5.93;1.67;;;22.70;74.70;;;;;;5032429;28;20030;-83
2022/05/13 13:18:11;;;;;;;5.20;1.33;;;23.20;74.90;;;;;;5015559;28;20095;-83
2022/05/13 13:20:58;;;;;;;5.00;1.45;;;22.90;72.20;;;;;;5032303;28;20115;-82
2022/05/13 13:23:28;;;;;;;7.95;1.42;;;23.00;72.70;;;;;;5032164;28;20044;-83
2022/05/13 13:26:19;;;;;;;8.65;3.03;;;22.80;74.20;;;;;;5026028;28;20032;-82
2022/05/13 13:28:52;;;;;;;10.90;1.88;;;22.90;73.80;;;;;;5030959;28;20108;-81
2022/05/13 13:31:24;;;;;;;8.07;1.67;;;23.70;73.20;;;;;;5031653;28;20385;-82
2022/05/13 13:33:56;;;;;;;6.50;1.80;;;24.20;70.10;;;;;;5015072;28;20030;-81
2022/05/13 13:36:29;;;;;;;2.85;1.30;;;23.70;69.80;;;;;;5015409;28;20171;-82
2022/05/13 13:38:57;;;;;;;4.65;1.50;;;23.00;68.10;;;;;;5032380;28;20029;-81
2022/05/13 13:41:34;;;;;;;6.57;1.95;;;23.10;73.30;;;;;;5015519;28;20037;-81
2022/05/13 13:44:08;;;;;;;7.05;1.77;;;23.70;74.50;;;;;;5032001;28;20026;-82
2022/05/13 13:46:40;;;;;;;5.57;1.42;;;23.70;70.70;;;;;;5015475;28;20061;-82
2022/05/13 13:49:07;;;;;;;3.13;1.23;;;23.60;69.80;;;;;;5015569;28;20116;-82
2022/05/13 13:51:50;;;;;;;7.38;1.10;;;23.10;67.30;;;;;;5032640;28;20477;-81
2022/05/13 13:54:22;;;;;;;3.30;1.40;;;23.50;68.10;;;;;;5013922;28;20035;-82
2022/05/13 13:57:13;;;;;;;7.35;1.40;;;23.90;64.70;;;;;;5031731;28;20038;-82